sensor_id;sensor_type;location;lat;lon;timestamp;pressure;altitude;pressure_sealevel;temperature;humidity
27429;BME280;14881;48.092;11.574;2023-03-24T00:01:52;94824.91;;;10.93;100.00
27429;BME280;14881;48.092;11.574;2023-03-24T00:04:22;94817.19;;;10.87;100.00
27429;BME280;14881;48.092;11.574;2023-03-24T00:06:52;94817.19;;;10.87;100.00
27429;BME280;14881;48.092;11.574;2023-03-24T00:09:20;94812.19;;;10.80;100.00
27429;BME280;14881;48.092;11.574;2023-03-24T00:11:48;94810.06;;;10.77;100.00
27429;BME280;14881;48.092;11.574;2023-03-24T00:14:16;94801.44;;;10.75;100.00
27429;BME280;14881;48.092;11.574;2023-03-24T00:16:44;94794.31;;;10.65;100.00
27429;BME280;14881;48.092;11.574;2023-03-24T00:19:15;94781.66;;;10.61;100.00
27429;BME280;14881;48.092;11.574;2023-03-24T00:21:43;94779.50;;;10.49;100.00
27429;BME280;14881;48.092;11.574;2023-03-24T00:24:12;94780.03;;;10.37;100.00
27429;BME280;14881;48.092;11.574;2023-03-24T00:26:40;94773.91;;;10.32;100.00
27429;BME280;14881;48.092;11.574;2023-03-24T00:29:11;94776.31;;;10.33;100.00
27429;BME280;14881;48.092;11.574;2023-03-24T00:31:39;94770.63;;;10.21;100.00
27429;BME280;14881;48.092;11.574;2023-03-24T00:34:07;94758.53;;;10.13;100.00
27429;BME280;14881;48.092;11.574;2023-03-24T00:36:38;94750.31;;;10.05;100.00
27429;BME280;14881;48.092;11.574;2023-03-24T00:39:06;94750.44;;;10.00;100.00
27429;BME280;14881;48.092;11.574;2023-03-24T00:41:35;94746.00;;;10.04;100.00
27429;BME280;14881;48.092;11.574;2023-03-24T00:44:03;94744.41;;;10.03;100.00
27429;BME280;14881;48.092;11.574;2023-03-24T00:46:32;94747.94;;;10.03;100.00
27429;BME280;14881;48.092;11.574;2023-03-24T00:49:02;94736.34;;;10.11;100.00
27429;BME280;14881;48.092;11.574;2023-03-24T00:51:34;94735.41;;;10.16;100.00
27429;BME280;14881;48.092;11.574;2023-03-24T00:54:03;94734.31;;;10.31;100.00
27429;BME280;14881;48.092;11.574;2023-03-24T00:56:32;94723.34;;;10.36;100.00
27429;BME280;14881;48.092;11.574;2023-03-24T00:59:03;94724.63;;;10.38;100.00
27429;BME280;14881;48.092;11.574;2023-03-24T01:01:32;94724.25;;;10.31;100.00
27429;BME280;14881;48.092;11.574;2023-03-24T01:04:03;94734.31;;;10.31;100.00
27429;BME280;14881;48.092;11.574;2023-03-24T01:06:33;94730.88;;;10.39;100.00
27429;BME280;14881;48.092;11.574;2023-03-24T01:09:03;94727.22;;;10.43;100.00
27429;BME280;14881;48.092;11.574;2023-03-24T01:11:35;94726.72;;;10.41;100.00
27429;BME280;14881;48.092;11.574;2023-03-24T01:14:06;94734.19;;;10.36;100.00
27429;BME280;14881;48.092;11.574;2023-03-24T01:16:34;94750.28;;;10.32;100.00
27429;BME280;14881;48.092;11.574;2023-03-24T01:19:05;94761.94;;;10.33;100.00
27429;BME280;14881;48.092;11.574;2023-03-24T01:21:35;94749.19;;;10.33;100.00
27429;BME280;14881;48.092;11.574;2023-03-24T01:24:04;94755.22;;;10.30;100.00
27429;BME280;14881;48.092;11.574;2023-03-24T01:26:32;94749.28;;;10.28;100.00
27429;BME280;14881;48.092;11.574;2023-03-24T01:29:00;94749.09;;;10.25;100.00
27429;BME280;14881;48.092;11.574;2023-03-24T01:31:29;94747.63;;;10.19;100.00
27429;BME280;14881;48.092;11.574;2023-03-24T01:33:57;94751.22;;;10.14;100.00
27429;BME280;14881;48.092;11.574;2023-03-24T01:36:25;94745.06;;;10.08;100.00
27429;BME280;14881;48.092;11.574;2023-03-24T01:38:55;94743.09;;;10.00;100.00
27429;BME280;14881;48.092;11.574;2023-03-24T01:41:26;94740.41;;;9.87;100.00
27429;BME280;14881;48.092;11.574;2023-03-24T01:43:54;94731.88;;;9.80;100.00
27429;BME280;14881;48.092;11.574;2023-03-24T01:46:22;94735.13;;;9.68;100.00
27429;BME280;14881;48.092;11.574;2023-03-24T01:48:56;94729.88;;;9.58;100.00
27429;BME280;14881;48.092;11.574;2023-03-24T01:51:28;94720.06;;;9.48;100.00
27429;BME280;14881;48.092;11.574;2023-03-24T01:54:02;94727.19;;;9.44;100.00
27429;BME280;14881;48.092;11.574;2023-03-24T01:56:33;94703.88;;;9.43;100.00
27429;BME280;14881;48.092;11.574;2023-03-24T01:59:05;94719.25;;;9.48;100.00
27429;BME280;14881;48.092;11.574;2023-03-24T02:01:35;94724.47;;;9.44;100.00
27429;BME280;14881;48.092;11.574;2023-03-24T02:04:05;94726.16;;;9.40;100.00
27429;BME280;14881;48.092;11.574;2023-03-24T02:06:36;94732.59;;;9.30;100.00
27429;BME280;14881;48.092;11.574;2023-03-24T02:09:07;94737.13;;;9.35;100.00
27429;BME280;14881;48.092;11.574;2023-03-24T02:11:38;94726.88;;;9.32;100.00
27429;BME280;14881;48.092;11.574;2023-03-24T02:14:07;94747.34;;;9.38;100.00
27429;BME280;14881;48.092;11.574;2023-03-24T02:16:51;94742.22;;;9.36;100.00
27429;BME280;14881;48.092;11.574;2023-03-24T02:19:51;94741.44;;;9.50;100.00
27429;BME280;14881;48.092;11.574;2023-03-24T02:28:41;94730.09;;;9.61;100.00
27429;BME280;14881;48.092;11.574;2023-03-24T02:31:20;94736.09;;;9.72;100.00
27429;BME280;14881;48.092;11.574;2023-03-24T02:37:31;94730.88;;;9.62;100.00
27429;BME280;14881;48.092;11.574;2023-03-24T02:40:21;94735.91;;;9.55;100.00
27429;BME280;14881;48.092;11.574;2023-03-24T02:42:59;94748.56;;;9.59;100.00
27429;BME280;14881;48.092;11.574;2023-03-24T02:45:34;94746.25;;;9.53;100.00
27429;BME280;14881;48.092;11.574;2023-03-24T02:48:13;94748.25;;;9.61;100.00
27429;BME280;14881;48.092;11.574;2023-03-24T02:50:48;94756.00;;;9.67;100.00
27429;BME280;14881;48.092;11.574;2023-03-24T02:53:21;94738.22;;;9.61;100.00
27429;BME280;14881;48.092;11.574;2023-03-24T02:55:55;94734.41;;;9.49;100.00
27429;BME280;14881;48.092;11.574;2023-03-24T02:58:29;94745.75;;;9.51;100.00
27429;BME280;14881;48.092;11.574;2023-03-24T03:01:04;94729.16;;;9.38;100.00
27429;BME280;14881;48.092;11.574;2023-03-24T03:03:37;94729.09;;;9.43;100.00
27429;BME280;14881;48.092;11.574;2023-03-24T03:06:11;94726.75;;;9.37;100.00
27429;BME280;14881;48.092;11.574;2023-03-24T03:08:41;94723.97;;;9.42;100.00
27429;BME280;14881;48.092;11.574;2023-03-24T03:11:14;94722.34;;;9.41;100.00
27429;BME280;14881;48.092;11.574;2023-03-24T03:13:46;94720.06;;;9.48;100.00
27429;BME280;14881;48.092;11.574;2023-03-24T03:16:19;94715.63;;;9.66;100.00
27429;BME280;14881;48.092;11.574;2023-03-24T03:18:54;94710.28;;;9.74;100.00
27429;BME280;14881;48.092;11.574;2023-03-24T03:21:27;94706.66;;;9.79;100.00
27429;BME280;14881;48.092;11.574;2023-03-24T03:24:00;94707.66;;;9.83;100.00
27429;BME280;14881;48.092;11.574;2023-03-24T03:26:31;94705.63;;;9.89;100.00
27429;BME280;14881;48.092;11.574;2023-03-24T03:29:03;94698.72;;;9.83;100.00
27429;BME280;14881;48.092;11.574;2023-03-24T03:31:35;94696.63;;;9.80;100.00
27429;BME280;14881;48.092;11.574;2023-03-24T03:34:13;94698.81;;;9.77;100.00
27429;BME280;14881;48.092;11.574;2023-03-24T03:36:48;94691.38;;;9.83;100.00
27429;BME280;14881;48.092;11.574;2023-03-24T03:39:20;94677.69;;;9.88;100.00
27429;BME280;14881;48.092;11.574;2023-03-24T03:41:51;94684.31;;;9.96;100.00
27429;BME280;14881;48.092;11.574;2023-03-24T03:44:19;94685.63;;;9.98;100.00
27429;BME280;14881;48.092;11.574;2023-03-24T03:46:47;94680.00;;;9.95;100.00
27429;BME280;14881;48.092;11.574;2023-03-24T03:49:14;94675.16;;;9.92;100.00
27429;BME280;14881;48.092;11.574;2023-03-24T03:51:42;94656.00;;;9.88;100.00
27429;BME280;14881;48.092;11.574;2023-03-24T03:54:12;94651.44;;;9.97;100.00
27429;BME280;14881;48.092;11.574;2023-03-24T03:56:44;94640.09;;;9.95;100.00
27429;BME280;14881;48.092;11.574;2023-03-24T03:59:27;94642.50;;;9.97;100.00
27429;BME280;14881;48.092;11.574;2023-03-24T04:01:55;94634.47;;;9.92;100.00
27429;BME280;14881;48.092;11.574;2023-03-24T04:04:36;94627.69;;;9.81;100.00
27429;BME280;14881;48.092;11.574;2023-03-24T04:07:13;94625.88;;;9.76;100.00
27429;BME280;14881;48.092;11.574;2023-03-24T04:09:53;94612.31;;;9.76;100.00
27429;BME280;14881;48.092;11.574;2023-03-24T04:12:38;94621.25;;;9.76;100.00
27429;BME280;14881;48.092;11.574;2023-03-24T04:15:31;94622.25;;;9.81;100.00
27429;BME280;14881;48.092;11.574;2023-03-24T04:18:11;94613.38;;;9.89;100.00
27429;BME280;14881;48.092;11.574;2023-03-24T04:20:45;94622.22;;;9.94;100.00
27429;BME280;14881;48.092;11.574;2023-03-24T04:23:23;94620.31;;;9.95;100.00
27429;BME280;14881;48.092;11.574;2023-03-24T04:26:01;94619.88;;;10.01;100.00
27429;BME280;14881;48.092;11.574;2023-03-24T04:28:37;94620.53;;;10.07;100.00
27429;BME280;14881;48.092;11.574;2023-03-24T04:31:11;94607.16;;;10.10;100.00
27429;BME280;14881;48.092;11.574;2023-03-24T04:33:48;94616.81;;;10.17;100.00
27429;BME280;14881;48.092;11.574;2023-03-24T04:36:21;94614.41;;;10.15;100.00
27429;BME280;14881;48.092;11.574;2023-03-24T04:38:53;94622.84;;;10.13;100.00
27429;BME280;14881;48.092;11.574;2023-03-24T04:41:25;94615.13;;;10.07;100.00
27429;BME280;14881;48.092;11.574;2023-03-24T04:43:55;94617.47;;;10.00;100.00
27429;BME280;14881;48.092;11.574;2023-03-24T04:46:25;94610.81;;;10.06;100.00
27429;BME280;14881;48.092;11.574;2023-03-24T04:48:53;94610.19;;;10.09;100.00
27429;BME280;14881;48.092;11.574;2023-03-24T04:51:21;94612.59;;;10.10;100.00
27429;BME280;14881;48.092;11.574;2023-03-24T04:53:49;94607.44;;;10.23;100.00
27429;BME280;14881;48.092;11.574;2023-03-24T04:56:33;94614.03;;;10.30;100.00
27429;BME280;14881;48.092;11.574;2023-03-24T04:59:04;94609.00;;;10.37;100.00
27429;BME280;14881;48.092;11.574;2023-03-24T05:01:35;94610.44;;;10.43;100.00
27429;BME280;14881;48.092;11.574;2023-03-24T05:04:03;94612.25;;;10.48;100.00
27429;BME280;14881;48.092;11.574;2023-03-24T05:06:31;94601.88;;;10.50;100.00
27429;BME280;14881;48.092;11.574;2023-03-24T05:08:59;94598.03;;;10.51;100.00
27429;BME280;14881;48.092;11.574;2023-03-24T05:11:27;94612.91;;;10.54;100.00
27429;BME280;14881;48.092;11.574;2023-03-24T05:13:54;94617.72;;;10.57;100.00
27429;BME280;14881;48.092;11.574;2023-03-24T05:16:22;94629.13;;;10.67;100.00
27429;BME280;14881;48.092;11.574;2023-03-24T05:18:51;94640.81;;;10.76;100.00
27429;BME280;14881;48.092;11.574;2023-03-24T05:21:19;94652.88;;;10.84;100.00
27429;BME280;14881;48.092;11.574;2023-03-24T05:23:47;94643.03;;;10.74;100.00
27429;BME280;14881;48.092;11.574;2023-03-24T05:26:15;94649.06;;;10.63;100.00
27429;BME280;14881;48.092;11.574;2023-03-24T05:28:43;94664.81;;;10.52;100.00
27429;BME280;14881;48.092;11.574;2023-03-24T05:31:11;94659.03;;;10.45;100.00
27429;BME280;14881;48.092;11.574;2023-03-24T05:33:39;94653.09;;;10.43;100.00
27429;BME280;14881;48.092;11.574;2023-03-24T05:36:09;94652.78;;;10.44;100.00
27429;BME280;14881;48.092;11.574;2023-03-24T05:38:37;94665.38;;;10.40;100.00
27429;BME280;14881;48.092;11.574;2023-03-24T05:41:05;94667.03;;;10.50;100.00
27429;BME280;14881;48.092;11.574;2023-03-24T05:43:33;94668.03;;;10.54;100.00
27429;BME280;14881;48.092;11.574;2023-03-24T05:46:01;94669.19;;;10.62;100.00
27429;BME280;14881;48.092;11.574;2023-03-24T05:48:29;94674.31;;;10.63;100.00
27429;BME280;14881;48.092;11.574;2023-03-24T05:50:56;94665.34;;;10.63;100.00
27429;BME280;14881;48.092;11.574;2023-03-24T05:53:25;94656.97;;;10.73;100.00
27429;BME280;14881;48.092;11.574;2023-03-24T05:55:53;94661.31;;;10.82;100.00
27429;BME280;14881;48.092;11.574;2023-03-24T05:58:24;94661.50;;;10.86;100.00
27429;BME280;14881;48.092;11.574;2023-03-24T06:00:51;94656.38;;;10.85;100.00
27429;BME280;14881;48.092;11.574;2023-03-24T06:03:20;94673.66;;;10.89;100.00
27429;BME280;14881;48.092;11.574;2023-03-24T06:05:47;94669.47;;;10.82;100.00
27429;BME280;14881;48.092;11.574;2023-03-24T06:08:16;94660.50;;;10.73;100.00
27429;BME280;14881;48.092;11.574;2023-03-24T06:10:45;94669.88;;;10.67;100.00
27429;BME280;14881;48.092;11.574;2023-03-24T06:13:13;94663.75;;;10.62;100.00
27429;BME280;14881;48.092;11.574;2023-03-24T06:15:41;94665.97;;;10.60;100.00
27429;BME280;14881;48.092;11.574;2023-03-24T06:18:13;94648.22;;;10.54;100.00
27429;BME280;14881;48.092;11.574;2023-03-24T06:20:42;94641.53;;;10.60;100.00
27429;BME280;14881;48.092;11.574;2023-03-24T06:23:10;94638.69;;;10.65;100.00
27429;BME280;14881;48.092;11.574;2023-03-24T06:25:38;94632.88;;;10.58;100.00
27429;BME280;14881;48.092;11.574;2023-03-24T06:28:13;94628.56;;;10.57;100.00
27429;BME280;14881;48.092;11.574;2023-03-24T06:30:42;94621.72;;;10.59;100.00
27429;BME280;14881;48.092;11.574;2023-03-24T06:33:10;94627.22;;;10.68;100.00
27429;BME280;14881;48.092;11.574;2023-03-24T06:35:38;94636.47;;;10.67;100.00
27429;BME280;14881;48.092;11.574;2023-03-24T06:38:06;94633.63;;;10.72;100.00
27429;BME280;14881;48.092;11.574;2023-03-24T06:40:34;94633.78;;;10.75;100.00
27429;BME280;14881;48.092;11.574;2023-03-24T06:43:02;94633.16;;;10.78;100.00
27429;BME280;14881;48.092;11.574;2023-03-24T06:45:35;94618.47;;;10.79;100.00
27429;BME280;14881;48.092;11.574;2023-03-24T06:48:04;94622.16;;;10.84;100.00
27429;BME280;14881;48.092;11.574;2023-03-24T06:50:32;94619.63;;;10.87;100.00
27429;BME280;14881;48.092;11.574;2023-03-24T06:53:01;94615.81;;;10.88;100.00
27429;BME280;14881;48.092;11.574;2023-03-24T06:55:28;94617.25;;;10.94;100.00
27429;BME280;14881;48.092;11.574;2023-03-24T06:57:56;94625.09;;;10.96;100.00
27429;BME280;14881;48.092;11.574;2023-03-24T07:00:24;94620.03;;;11.03;100.00
27429;BME280;14881;48.092;11.574;2023-03-24T07:02:53;94606.13;;;11.04;100.00
27429;BME280;14881;48.092;11.574;2023-03-24T07:05:21;94617.00;;;11.13;100.00
27429;BME280;14881;48.092;11.574;2023-03-24T07:07:52;94623.91;;;11.19;100.00
27429;BME280;14881;48.092;11.574;2023-03-24T07:10:39;94612.41;;;11.22;100.00
27429;BME280;14881;48.092;11.574;2023-03-24T07:13:07;94621.19;;;11.19;100.00
27429;BME280;14881;48.092;11.574;2023-03-24T07:15:35;94629.53;;;11.23;100.00
27429;BME280;14881;48.092;11.574;2023-03-24T07:18:04;94625.38;;;11.25;100.00
27429;BME280;14881;48.092;11.574;2023-03-24T07:20:33;94644.84;;;11.19;100.00
27429;BME280;14881;48.092;11.574;2023-03-24T07:23:00;94655.56;;;11.15;100.00
27429;BME280;14881;48.092;11.574;2023-03-24T07:25:28;94654.44;;;11.16;100.00
27429;BME280;14881;48.092;11.574;2023-03-24T07:27:56;94652.81;;;11.06;100.00
27429;BME280;14881;48.092;11.574;2023-03-24T07:30:24;94662.22;;;11.00;100.00
27429;BME280;14881;48.092;11.574;2023-03-24T07:33:07;94675.44;;;10.93;100.00
27429;BME280;14881;48.092;11.574;2023-03-24T07:35:38;94699.06;;;10.84;100.00
27429;BME280;14881;48.092;11.574;2023-03-24T07:38:05;94706.72;;;10.82;100.00
27429;BME280;14881;48.092;11.574;2023-03-24T07:40:33;94716.16;;;10.85;100.00
27429;BME280;14881;48.092;11.574;2023-03-24T07:43:03;94724.50;;;10.88;100.00
27429;BME280;14881;48.092;11.574;2023-03-24T07:45:34;94711.25;;;10.95;100.00
27429;BME280;14881;48.092;11.574;2023-03-24T07:48:04;94702.38;;;11.03;100.00
27429;BME280;14881;48.092;11.574;2023-03-24T07:50:33;94716.47;;;11.14;100.00
27429;BME280;14881;48.092;11.574;2023-03-24T07:53:01;94717.66;;;11.22;100.00
27429;BME280;14881;48.092;11.574;2023-03-24T07:55:29;94724.59;;;11.36;100.00
27429;BME280;14881;48.092;11.574;2023-03-24T07:58:03;94734.84;;;11.39;100.00
27429;BME280;14881;48.092;11.574;2023-03-24T08:00:40;94723.34;;;11.51;100.00
27429;BME280;14881;48.092;11.574;2023-03-24T08:03:48;94729.47;;;11.57;100.00
27429;BME280;14881;48.092;11.574;2023-03-24T08:06:54;94737.16;;;11.63;100.00
27429;BME280;14881;48.092;11.574;2023-03-24T08:13:02;94714.91;;;12.18;100.00
27429;BME280;14881;48.092;11.574;2023-03-24T08:15:52;94715.41;;;12.63;100.00
27429;BME280;14881;48.092;11.574;2023-03-24T08:18:32;94703.13;;;13.04;100.00
27429;BME280;14881;48.092;11.574;2023-03-24T08:21:10;94700.00;;;13.40;100.00
27429;BME280;14881;48.092;11.574;2023-03-24T08:23:56;94700.97;;;13.73;100.00
27429;BME280;14881;48.092;11.574;2023-03-24T08:26:24;94695.72;;;13.98;100.00
27429;BME280;14881;48.092;11.574;2023-03-24T08:29:05;94699.47;;;14.14;100.00
27429;BME280;14881;48.092;11.574;2023-03-24T08:31:42;94711.25;;;14.26;100.00
27429;BME280;14881;48.092;11.574;2023-03-24T08:34:31;94713.94;;;14.35;100.00
27429;BME280;14881;48.092;11.574;2023-03-24T08:40:10;94716.06;;;14.29;100.00
27429;BME280;14881;48.092;11.574;2023-03-24T08:42:53;94708.19;;;14.28;100.00
27429;BME280;14881;48.092;11.574;2023-03-24T08:52:14;94720.38;;;14.10;100.00
27429;BME280;14881;48.092;11.574;2023-03-24T08:55:06;94724.41;;;14.04;100.00
27429;BME280;14881;48.092;11.574;2023-03-24T08:57:48;94729.75;;;14.00;100.00
27429;BME280;14881;48.092;11.574;2023-03-24T09:00:23;94736.53;;;13.94;100.00
27429;BME280;14881;48.092;11.574;2023-03-24T09:02:58;94737.19;;;13.91;100.00
27429;BME280;14881;48.092;11.574;2023-03-24T09:08:09;94741.81;;;13.99;100.00
27429;BME280;14881;48.092;11.574;2023-03-24T09:10:39;94735.69;;;14.02;100.00
27429;BME280;14881;48.092;11.574;2023-03-24T09:13:12;94732.56;;;14.12;100.00
27429;BME280;14881;48.092;11.574;2023-03-24T09:15:45;94735.84;;;14.26;100.00
27429;BME280;14881;48.092;11.574;2023-03-24T09:18:20;94740.25;;;14.40;100.00
27429;BME280;14881;48.092;11.574;2023-03-24T09:20:55;94739.34;;;14.56;100.00
27429;BME280;14881;48.092;11.574;2023-03-24T09:23:32;94741.66;;;14.54;100.00
27429;BME280;14881;48.092;11.574;2023-03-24T09:26:03;94737.16;;;14.50;100.00
27429;BME280;14881;48.092;11.574;2023-03-24T09:28:39;94735.91;;;14.39;100.00
27429;BME280;14881;48.092;11.574;2023-03-24T09:31:09;94751.06;;;14.36;100.00
27429;BME280;14881;48.092;11.574;2023-03-24T09:33:37;94754.94;;;14.35;100.00
27429;BME280;14881;48.092;11.574;2023-03-24T09:36:06;94759.81;;;14.21;100.00
27429;BME280;14881;48.092;11.574;2023-03-24T09:38:34;94771.28;;;14.14;100.00
27429;BME280;14881;48.092;11.574;2023-03-24T09:41:03;94764.38;;;13.79;100.00
27429;BME280;14881;48.092;11.574;2023-03-24T09:43:35;94781.03;;;13.48;100.00
27429;BME280;14881;48.092;11.574;2023-03-24T09:46:10;94772.91;;;13.31;100.00
27429;BME280;14881;48.092;11.574;2023-03-24T09:48:43;94788.16;;;13.14;100.00
27429;BME280;14881;48.092;11.574;2023-03-24T09:51:19;94793.13;;;13.04;100.00
27429;BME280;14881;48.092;11.574;2023-03-24T09:53:51;94794.91;;;12.91;100.00
27429;BME280;14881;48.092;11.574;2023-03-24T09:56:24;94794.56;;;12.84;100.00
27429;BME280;14881;48.092;11.574;2023-03-24T09:59:01;94806.13;;;12.72;100.00
27429;BME280;14881;48.092;11.574;2023-03-24T10:01:32;94813.81;;;12.70;100.00
27429;BME280;14881;48.092;11.574;2023-03-24T10:04:03;94810.44;;;12.56;100.00
27429;BME280;14881;48.092;11.574;2023-03-24T10:06:35;94815.06;;;12.47;100.00
27429;BME280;14881;48.092;11.574;2023-03-24T10:09:16;94819.41;;;12.48;100.00
27429;BME280;14881;48.092;11.574;2023-03-24T10:11:58;94813.66;;;12.58;100.00
27429;BME280;14881;48.092;11.574;2023-03-24T10:14:43;94818.16;;;12.63;100.00
27429;BME280;14881;48.092;11.574;2023-03-24T10:17:19;94824.75;;;12.79;100.00
27429;BME280;14881;48.092;11.574;2023-03-24T10:19:51;94826.50;;;12.75;100.00
27429;BME280;14881;48.092;11.574;2023-03-24T10:22:30;94832.41;;;12.68;100.00
27429;BME280;14881;48.092;11.574;2023-03-24T10:25:10;94835.75;;;12.65;100.00
27429;BME280;14881;48.092;11.574;2023-03-24T10:27:45;94828.72;;;12.64;100.00
27429;BME280;14881;48.092;11.574;2023-03-24T10:30:16;94839.16;;;12.62;100.00
27429;BME280;14881;48.092;11.574;2023-03-24T10:32:45;94846.84;;;12.60;100.00
27429;BME280;14881;48.092;11.574;2023-03-24T10:35:15;94848.59;;;12.56;100.00
27429;BME280;14881;48.092;11.574;2023-03-24T10:37:47;94848.56;;;12.47;100.00
27429;BME280;14881;48.092;11.574;2023-03-24T10:40:18;94850.34;;;12.43;100.00
27429;BME280;14881;48.092;11.574;2023-03-24T10:42:49;94845.19;;;12.50;100.00
27429;BME280;14881;48.092;11.574;2023-03-24T10:45:34;94850.06;;;12.62;100.00
27429;BME280;14881;48.092;11.574;2023-03-24T10:48:03;94843.81;;;12.87;100.00
27429;BME280;14881;48.092;11.574;2023-03-24T10:50:34;94845.25;;;13.11;100.00
27429;BME280;14881;48.092;11.574;2023-03-24T10:53:07;94838.06;;;13.23;100.00
27429;BME280;14881;48.092;11.574;2023-03-24T10:55:37;94832.25;;;13.34;100.00
27429;BME280;14881;48.092;11.574;2023-03-24T10:58:16;94842.06;;;13.26;100.00
27429;BME280;14881;48.092;11.574;2023-03-24T11:00:47;94850.59;;;13.16;100.00
27429;BME280;14881;48.092;11.574;2023-03-24T11:03:20;94843.81;;;13.05;100.00
27429;BME280;14881;48.092;11.574;2023-03-24T11:05:57;94850.56;;;12.99;100.00
27429;BME280;14881;48.092;11.574;2023-03-24T11:08:32;94856.78;;;12.73;100.00
27429;BME280;14881;48.092;11.574;2023-03-24T11:11:12;94852.94;;;12.57;100.00
27429;BME280;14881;48.092;11.574;2023-03-24T11:13:53;94846.19;;;12.54;100.00
27429;BME280;14881;48.092;11.574;2023-03-24T11:16:27;94846.34;;;12.58;100.00
27429;BME280;14881;48.092;11.574;2023-03-24T11:18:57;94849.88;;;12.59;100.00
27429;BME280;14881;48.092;11.574;2023-03-24T11:21:28;94840.56;;;12.51;100.00
27429;BME280;14881;48.092;11.574;2023-03-24T11:23:57;94861.19;;;12.35;100.00
27429;BME280;14881;48.092;11.574;2023-03-24T11:26:29;94855.69;;;12.17;100.00
27429;BME280;14881;48.092;11.574;2023-03-24T11:29:01;94867.03;;;12.02;100.00
27429;BME280;14881;48.092;11.574;2023-03-24T11:31:32;94870.97;;;11.88;100.00
27429;BME280;14881;48.092;11.574;2023-03-24T11:34:07;94850.81;;;11.66;100.00
27429;BME280;14881;48.092;11.574;2023-03-24T11:36:45;94845.06;;;11.68;100.00
27429;BME280;14881;48.092;11.574;2023-03-24T11:39:17;94835.97;;;11.72;100.00
27429;BME280;14881;48.092;11.574;2023-03-24T11:42:03;94827.50;;;11.74;100.00
27429;BME280;14881;48.092;11.574;2023-03-24T11:44:42;94802.94;;;11.96;100.00
27429;BME280;14881;48.092;11.574;2023-03-24T11:47:14;94814.38;;;12.15;100.00
27429;BME280;14881;48.092;11.574;2023-03-24T11:49:50;94801.59;;;12.33;100.00
27429;BME280;14881;48.092;11.574;2023-03-24T11:52:27;94809.63;;;12.47;100.00
27429;BME280;14881;48.092;11.574;2023-03-24T11:55:00;94796.50;;;12.75;100.00
27429;BME280;14881;48.092;11.574;2023-03-24T11:57:40;94788.19;;;12.80;100.00
27429;BME280;14881;48.092;11.574;2023-03-24T12:00:19;94783.03;;;12.87;100.00
27429;BME280;14881;48.092;11.574;2023-03-24T12:03:06;94781.59;;;12.98;100.00
27429;BME280;14881;48.092;11.574;2023-03-24T12:05:40;94788.16;;;13.23;100.00
27429;BME280;14881;48.092;11.574;2023-03-24T12:08:22;94782.00;;;13.43;100.00
27429;BME280;14881;48.092;11.574;2023-03-24T12:11:07;94771.09;;;13.43;100.00
27429;BME280;14881;48.092;11.574;2023-03-24T12:13:40;94766.00;;;13.71;100.00
27429;BME280;14881;48.092;11.574;2023-03-24T12:16:36;94766.66;;;14.06;100.00
27429;BME280;14881;48.092;11.574;2023-03-24T12:19:36;94765.06;;;14.05;100.00
27429;BME280;14881;48.092;11.574;2023-03-24T12:22:18;94747.97;;;14.17;100.00
27429;BME280;14881;48.092;11.574;2023-03-24T12:25:03;94743.31;;;14.17;100.00
27429;BME280;14881;48.092;11.574;2023-03-24T12:27:42;94746.72;;;14.06;100.00
27429;BME280;14881;48.092;11.574;2023-03-24T12:30:19;94750.25;;;14.06;100.00
27429;BME280;14881;48.092;11.574;2023-03-24T12:33:01;94748.06;;;14.00;100.00
27429;BME280;14881;48.092;11.574;2023-03-24T12:35:49;94742.47;;;13.96;100.00
27429;BME280;14881;48.092;11.574;2023-03-24T12:38:33;94744.25;;;13.92;100.00
27429;BME280;14881;48.092;11.574;2023-03-24T12:41:19;94748.66;;;14.05;100.00
27429;BME280;14881;48.092;11.574;2023-03-24T12:44:05;94755.84;;;14.18;100.00
27429;BME280;14881;48.092;11.574;2023-03-24T12:46:44;94753.50;;;14.29;100.00
27429;BME280;14881;48.092;11.574;2023-03-24T12:49:32;94741.63;;;14.25;100.00
27429;BME280;14881;48.092;11.574;2023-03-24T12:52:15;94745.47;;;14.33;100.00
27429;BME280;14881;48.092;11.574;2023-03-24T12:54:51;94744.91;;;14.39;100.00
27429;BME280;14881;48.092;11.574;2023-03-24T12:57:24;94755.09;;;14.59;100.00
27429;BME280;14881;48.092;11.574;2023-03-24T12:59:57;94748.69;;;14.76;100.00
27429;BME280;14881;48.092;11.574;2023-03-24T13:02:29;94755.38;;;14.87;100.00
27429;BME280;14881;48.092;11.574;2023-03-24T13:05:04;94754.13;;;14.97;100.00
27429;BME280;14881;48.092;11.574;2023-03-24T13:07:35;94750.59;;;14.96;100.00
27429;BME280;14881;48.092;11.574;2023-03-24T13:10:06;94751.94;;;14.90;100.00
27429;BME280;14881;48.092;11.574;2023-03-24T13:12:43;94750.53;;;15.05;100.00
27429;BME280;14881;48.092;11.574;2023-03-24T13:15:15;94743.81;;;15.03;100.00
27429;BME280;14881;48.092;11.574;2023-03-24T13:17:47;94763.97;;;14.77;100.00
27429;BME280;14881;48.092;11.574;2023-03-24T13:20:23;94783.91;;;14.27;100.00
27429;BME280;14881;48.092;11.574;2023-03-24T13:22:58;94781.25;;;13.26;100.00
27429;BME280;14881;48.092;11.574;2023-03-24T13:25:32;94789.31;;;12.79;100.00
27429;BME280;14881;48.092;11.574;2023-03-24T13:28:10;94778.22;;;12.75;100.00
27429;BME280;14881;48.092;11.574;2023-03-24T13:30:40;94766.69;;;12.70;100.00
27429;BME280;14881;48.092;11.574;2023-03-24T13:33:12;94762.19;;;12.57;100.00
27429;BME280;14881;48.092;11.574;2023-03-24T13:35:56;94763.97;;;12.61;100.00
27429;BME280;14881;48.092;11.574;2023-03-24T13:38:40;94768.44;;;12.48;100.00
27429;BME280;14881;48.092;11.574;2023-03-24T13:41:56;94750.81;;;12.37;100.00